createdAt,value
2019-06-26T00:01:26.354Z,5.97
2019-06-26T00:04:00.940Z,5.78
2019-06-26T00:06:35.538Z,5.78
2019-06-26T00:09:10.113Z,6.00
2019-06-26T00:11:44.753Z,8.63
2019-06-26T00:14:19.407Z,5.87
2019-06-26T00:16:54.417Z,6.22
2019-06-26T00:19:29.085Z,6.55
2019-06-26T00:22:03.700Z,6.03
2019-06-26T00:24:38.296Z,5.92
2019-06-26T00:27:12.908Z,6.85
2019-06-26T00:29:47.585Z,7.00
2019-06-26T00:32:22.524Z,6.53
2019-06-26T00:34:57.182Z,6.37
2019-06-26T00:37:31.825Z,6.80
2019-06-26T00:40:06.574Z,6.30
2019-06-26T00:42:41.181Z,7.42
2019-06-26T00:45:16.254Z,6.72
2019-06-26T00:47:50.801Z,7.50
2019-06-26T00:50:25.356Z,7.57
2019-06-26T00:52:59.893Z,7.23
2019-06-26T00:55:34.471Z,7.10
2019-06-26T00:58:09.084Z,6.93
2019-06-26T01:00:47.473Z,6.43
2019-06-26T01:03:22.092Z,7.30
2019-06-26T01:05:56.729Z,7.20
2019-06-26T01:08:31.348Z,6.90
2019-06-26T01:11:05.978Z,6.40
2019-06-26T01:13:40.593Z,7.17
2019-06-26T01:16:15.166Z,7.20
2019-06-26T01:18:50.010Z,6.47
2019-06-26T01:21:24.703Z,7.30
2019-06-26T01:23:59.358Z,6.93
2019-06-26T01:26:34.112Z,7.00
2019-06-26T01:29:08.911Z,7.70
2019-06-26T01:31:43.634Z,7.23
2019-06-26T01:34:18.311Z,7.67
2019-06-26T01:36:52.940Z,8.27
2019-06-26T01:39:27.502Z,8.30
2019-06-26T01:42:02.205Z,7.67
2019-06-26T01:44:36.777Z,7.67
2019-06-26T01:47:11.432Z,6.83
2019-06-26T01:49:46.068Z,7.77
2019-06-26T01:52:20.650Z,8.10
2019-06-26T01:54:55.288Z,7.33
2019-06-26T01:57:29.936Z,8.30
2019-06-26T02:00:04.890Z,6.77
2019-06-26T02:02:39.811Z,7.07
2019-06-26T02:05:14.658Z,6.87
2019-06-26T02:07:49.312Z,7.90
2019-06-26T02:10:23.977Z,8.00
2019-06-26T02:12:58.916Z,8.37
2019-06-26T02:15:33.537Z,7.67
2019-06-26T02:18:27.100Z,8.10
2019-06-26T02:21:01.728Z,7.57
2019-06-26T02:23:36.371Z,7.77
2019-06-26T02:26:11.075Z,8.13
2019-06-26T02:28:45.710Z,7.40
2019-06-26T02:31:20.256Z,7.77
2019-06-26T02:33:55.133Z,7.30
2019-06-26T02:36:29.677Z,7.53
2019-06-26T02:39:05.737Z,7.90
2019-06-26T02:41:40.373Z,7.53
2019-06-26T02:44:15.040Z,8.13
2019-06-26T02:46:49.693Z,7.30
2019-06-26T02:49:24.340Z,6.60
2019-06-26T02:51:59.321Z,6.77
2019-06-26T02:54:34.296Z,7.73
2019-06-26T02:57:08.911Z,8.37
2019-06-26T02:59:43.513Z,7.77
2019-06-26T03:02:18.138Z,7.43
2019-06-26T03:04:52.913Z,7.40
2019-06-26T03:07:27.551Z,7.50
2019-06-26T03:10:02.118Z,7.30
2019-06-26T03:12:36.749Z,7.97
2019-06-26T03:15:11.598Z,7.83
2019-06-26T03:17:55.423Z,7.77
2019-06-26T03:20:25.433Z,8.00
2019-06-26T03:23:00.070Z,8.70
2019-06-26T03:25:35.007Z,8.77
2019-06-26T03:28:09.566Z,8.10
2019-06-26T03:30:44.230Z,7.77
2019-06-26T03:33:18.858Z,7.53
2019-06-26T03:35:53.578Z,7.07
2019-06-26T03:38:28.461Z,7.87
2019-06-26T03:41:03.103Z,7.83
2019-06-26T03:43:37.730Z,8.10
2019-06-26T03:46:12.383Z,8.43
2019-06-26T03:48:47.013Z,8.70
2019-06-26T03:51:21.586Z,8.33
2019-06-26T03:53:56.580Z,7.97
2019-06-26T03:56:31.200Z,8.30
2019-06-26T03:59:06.138Z,8.07
2019-06-26T04:01:40.902Z,7.87
2019-06-26T04:04:15.518Z,8.53
2019-06-26T04:06:50.087Z,8.20
2019-06-26T04:09:24.650Z,8.07
2019-06-26T04:11:59.641Z,8.00
2019-06-26T04:14:34.640Z,7.57
2019-06-26T04:17:09.301Z,8.90
2019-06-26T04:19:43.930Z,8.30
2019-06-26T04:22:18.830Z,8.13
2019-06-26T04:24:53.401Z,7.47
2019-06-26T04:27:28.039Z,7.83
2019-06-26T04:30:02.676Z,9.30
2019-06-26T04:32:37.373Z,8.23
2019-06-26T04:35:12.234Z,8.47
2019-06-26T04:37:46.991Z,8.17
2019-06-26T04:40:22.307Z,9.20
2019-06-26T04:42:56.969Z,9.10
2019-06-26T04:45:31.506Z,7.73
2019-06-26T04:48:07.432Z,7.80
2019-06-26T04:50:42.696Z,9.00
2019-06-26T04:53:17.270Z,8.57
2019-06-26T04:55:51.905Z,8.13
2019-06-26T04:58:26.561Z,9.03
2019-06-26T05:01:01.115Z,9.03
2019-06-26T05:03:35.789Z,8.80
2019-06-26T05:06:10.374Z,8.90
2019-06-26T05:08:45.020Z,9.07
2019-06-26T05:11:19.564Z,8.10
2019-06-26T05:13:54.137Z,8.33
2019-06-26T05:16:28.772Z,8.87
2019-06-26T05:19:03.367Z,9.33
2019-06-26T05:21:37.966Z,9.47
2019-06-26T05:24:12.879Z,9.70
2019-06-26T05:26:47.838Z,9.33
2019-06-26T05:29:22.481Z,9.23
2019-06-26T05:31:57.017Z,9.93
2019-06-26T05:34:31.586Z,9.15
2019-06-26T05:37:06.135Z,9.17
2019-06-26T05:39:40.772Z,8.80
2019-06-26T05:42:15.308Z,9.25
2019-06-26T05:44:49.901Z,8.83
2019-06-26T05:47:24.445Z,10.07
2019-06-26T05:49:59.116Z,9.47
2019-06-26T05:52:33.726Z,9.40
2019-06-26T05:55:08.697Z,9.07
2019-06-26T05:57:48.313Z,10.00
2019-06-26T06:00:20.892Z,9.90
2019-06-26T06:02:55.514Z,9.10
2019-06-26T06:05:30.269Z,10.18
2019-06-26T06:08:05.241Z,10.08
2019-06-26T06:10:39.825Z,10.15
2019-06-26T06:13:14.801Z,10.03
2019-06-26T06:15:49.705Z,9.00
2019-06-26T06:18:24.256Z,9.25
2019-06-26T06:20:59.567Z,9.18
2019-06-26T06:23:34.191Z,10.78
2019-06-26T06:26:08.768Z,10.53
2019-06-26T06:28:43.386Z,9.23
2019-06-26T06:31:18.057Z,10.53
2019-06-26T06:33:52.762Z,9.53
2019-06-26T06:36:27.416Z,9.53
2019-06-26T06:39:02.028Z,10.45
2019-06-26T06:41:36.681Z,10.48
2019-06-26T06:44:11.306Z,10.10
2019-06-26T06:46:45.957Z,10.15
2019-06-26T06:49:20.583Z,10.82
2019-06-26T06:51:55.224Z,9.85
2019-06-26T06:54:29.795Z,10.45
2019-06-26T06:57:04.363Z,10.13
2019-06-26T06:59:39.009Z,10.13
2019-06-26T07:02:13.652Z,10.35
2019-06-26T07:04:48.210Z,10.78
2019-06-26T07:07:22.857Z,10.35
2019-06-26T07:09:57.489Z,10.75
2019-06-26T07:12:32.129Z,10.32
2019-06-26T07:15:07.298Z,10.55
2019-06-26T07:17:42.395Z,10.50
2019-06-26T07:20:17.720Z,10.10
2019-06-26T07:22:52.385Z,10.50
2019-06-26T07:25:27.035Z,9.28
2019-06-26T07:28:02.063Z,10.63
2019-06-26T07:30:36.948Z,10.28
2019-06-26T07:33:11.683Z,10.65
2019-06-26T07:35:46.870Z,9.98
2019-06-26T07:38:21.518Z,10.40
2019-06-26T07:40:56.181Z,10.93
2019-06-26T07:43:30.776Z,10.60
2019-06-26T07:46:05.410Z,11.05
2019-06-26T07:48:40.038Z,10.38
2019-06-26T07:51:15.081Z,9.70
2019-06-26T07:53:49.996Z,10.63
2019-06-26T07:56:24.661Z,10.38
2019-06-26T07:58:59.692Z,10.90
2019-06-26T08:01:34.324Z,10.28
2019-06-26T08:04:09.056Z,10.32
2019-06-26T08:06:43.960Z,9.48
2019-06-26T08:09:18.872Z,10.10
2019-06-26T08:11:53.493Z,10.63
2019-06-26T08:14:28.281Z,10.28
2019-06-26T08:17:02.835Z,11.03
2019-06-26T08:19:37.936Z,10.18
2019-06-26T08:22:12.614Z,10.48
2019-06-26T08:24:47.678Z,11.38
2019-06-26T08:27:22.308Z,10.85
2019-06-26T08:29:57.209Z,10.13
2019-06-26T08:32:31.813Z,10.08
2019-06-26T08:35:06.719Z,10.18
2019-06-26T08:37:41.376Z,10.90
2019-06-26T08:40:16.607Z,10.95
2019-06-26T08:42:51.221Z,11.48
2019-06-26T08:45:25.999Z,11.65
2019-06-26T08:48:16.738Z,11.10
2019-06-26T08:50:37.249Z,11.53
2019-06-26T08:53:11.871Z,10.98
2019-06-26T08:55:46.521Z,11.30
2019-06-26T08:58:21.146Z,11.20
2019-06-26T09:00:55.769Z,11.35
2019-06-26T09:03:30.390Z,10.63
2019-06-26T09:06:05.033Z,11.68
2019-06-26T09:08:39.597Z,11.15
2019-06-26T09:11:14.242Z,10.98
2019-06-26T09:13:48.874Z,11.30
2019-06-26T09:16:24.040Z,12.03
2019-06-26T09:18:58.661Z,11.28
2019-06-26T09:21:33.581Z,10.58
2019-06-26T09:24:08.212Z,12.53
2019-06-26T09:26:43.150Z,11.95
2019-06-26T09:29:18.221Z,12.28
2019-06-26T09:31:52.802Z,12.43
2019-06-26T09:34:27.344Z,12.25
2019-06-26T09:37:01.989Z,11.68
2019-06-26T09:39:36.833Z,11.40
2019-06-26T09:42:11.480Z,11.45
2019-06-26T09:44:46.054Z,12.35
2019-06-26T09:47:20.792Z,11.03
2019-06-26T09:49:55.764Z,13.68
2019-06-26T09:52:30.348Z,11.28
2019-06-26T09:55:05.161Z,12.30
2019-06-26T09:57:39.914Z,11.30
2019-06-26T10:00:16.238Z,12.10
2019-06-26T10:02:50.989Z,11.65
2019-06-26T10:05:26.005Z,11.68
2019-06-26T10:08:00.647Z,11.85
2019-06-26T10:10:35.223Z,12.60
2019-06-26T10:13:09.960Z,12.33
2019-06-26T10:15:44.607Z,11.60
2019-06-26T10:18:19.430Z,11.97
2019-06-26T10:20:53.998Z,11.57
2019-06-26T10:23:28.646Z,12.58
2019-06-26T10:26:03.282Z,11.97
2019-06-26T10:28:38.004Z,12.65
2019-06-26T10:31:12.695Z,11.22
2019-06-26T10:33:47.310Z,11.97
2019-06-26T10:36:24.693Z,11.78
2019-06-26T10:38:58.552Z,11.85
2019-06-26T10:41:33.544Z,11.97
2019-06-26T10:44:08.602Z,12.07
2019-06-26T10:46:43.331Z,11.10
2019-06-26T10:49:27.081Z,11.08
2019-06-26T10:51:54.648Z,11.73
2019-06-26T10:54:29.329Z,11.60
2019-06-26T10:57:03.972Z,11.48
2019-06-26T10:59:38.748Z,12.00
2019-06-26T11:02:16.808Z,12.00
2019-06-26T11:04:50.527Z,12.33
2019-06-26T11:07:25.154Z,11.88
2019-06-26T11:09:59.901Z,11.78
2019-06-26T11:12:34.794Z,12.50
2019-06-26T11:15:10.653Z,11.45
2019-06-26T11:17:45.730Z,10.58
2019-06-26T11:20:20.553Z,9.15
2019-06-26T11:22:55.510Z,10.20
2019-06-26T11:25:30.190Z,10.40
2019-06-26T11:28:04.864Z,11.28
2019-06-26T11:30:39.504Z,10.43
2019-06-26T11:33:14.762Z,10.53
2019-06-26T11:35:49.760Z,10.40
2019-06-26T11:38:24.385Z,9.40
2019-06-26T11:41:01.838Z,9.65
2019-06-26T11:43:35.294Z,9.55
2019-06-26T11:46:10.040Z,9.25
2019-06-26T11:48:44.609Z,8.68
2019-06-26T11:51:19.382Z,8.15
2019-06-26T11:53:54.076Z,8.40
2019-06-26T11:56:28.671Z,7.87
2019-06-26T11:59:03.326Z,8.28
2019-06-26T12:01:37.990Z,8.10
2019-06-26T12:04:12.657Z,7.00
2019-06-26T12:06:47.277Z,6.60
2019-06-26T12:09:22.131Z,6.20
2019-06-26T12:11:56.774Z,6.70
2019-06-26T12:14:31.525Z,5.97
2019-06-26T12:17:06.485Z,6.08
2019-06-26T12:19:41.103Z,5.78
2019-06-26T12:22:16.148Z,6.17
2019-06-26T12:24:50.774Z,6.08
2019-06-26T12:27:25.564Z,5.62
2019-06-26T12:30:00.121Z,6.08
2019-06-26T12:32:41.851Z,5.85
2019-06-26T12:35:11.309Z,5.37
2019-06-26T12:37:45.893Z,5.62
2019-06-26T12:40:20.635Z,6.30
2019-06-26T12:42:55.915Z,4.85
2019-06-26T12:45:30.675Z,5.50
2019-06-26T12:48:05.799Z,4.95
2019-06-26T12:50:40.741Z,4.72
2019-06-26T12:53:15.761Z,4.45
2019-06-26T12:55:50.373Z,5.12
2019-06-26T12:58:25.021Z,4.45
2019-06-26T13:00:59.743Z,4.97
2019-06-26T13:03:34.377Z,4.62
2019-06-26T13:06:09.015Z,4.75
2019-06-26T13:08:43.676Z,4.67
2019-06-26T13:11:18.292Z,5.58
2019-06-26T13:14:02.459Z,5.28
2019-06-26T13:16:29.227Z,5.75
2019-06-26T13:19:03.885Z,5.78
2019-06-26T13:21:38.505Z,5.87
2019-06-26T13:24:13.698Z,5.55
2019-06-26T13:26:48.297Z,5.67
2019-06-26T13:29:22.920Z,6.00
2019-06-26T13:31:57.520Z,6.05
2019-06-26T13:34:32.215Z,5.90
2019-06-26T13:37:07.455Z,6.00
2019-06-26T13:39:42.192Z,5.75
2019-06-26T13:42:16.821Z,5.85
2019-06-26T13:44:51.930Z,5.92
2019-06-26T13:47:26.556Z,6.10
2019-06-26T13:50:02.792Z,6.00
2019-06-26T13:52:37.699Z,6.37
2019-06-26T13:55:12.343Z,6.10
2019-06-26T13:57:46.977Z,6.08
2019-06-26T14:00:21.970Z,6.00
2019-06-26T14:02:56.659Z,6.33
2019-06-26T14:05:31.515Z,6.95
2019-06-26T14:08:06.417Z,6.45
2019-06-26T14:10:41.063Z,6.50
2019-06-26T14:13:18.573Z,6.10
2019-06-26T14:15:53.142Z,6.65
2019-06-26T14:18:30.398Z,6.35
2019-06-26T14:21:04.009Z,6.10
2019-06-26T14:23:38.620Z,6.62
2019-06-26T14:26:13.628Z,6.83
2019-06-26T14:28:48.158Z,6.87
2019-06-26T14:31:22.789Z,6.53
2019-06-26T14:34:00.804Z,7.08
2019-06-26T14:36:35.448Z,6.35
2019-06-26T14:39:10.283Z,6.95
2019-06-26T14:41:45.028Z,6.40
2019-06-26T14:44:19.716Z,7.00
2019-06-26T14:46:57.312Z,6.50
2019-06-26T14:49:31.872Z,6.58
2019-06-26T14:52:08.998Z,6.87
2019-06-26T14:54:43.546Z,6.85
2019-06-26T14:57:18.659Z,6.78
2019-06-26T14:59:53.332Z,6.90
2019-06-26T15:02:31.557Z,6.42
2019-06-26T15:05:04.661Z,7.40
2019-06-26T15:07:39.309Z,8.05
2019-06-26T15:10:14.892Z,6.47
2019-06-26T15:12:49.471Z,6.40
2019-06-26T15:15:24.139Z,6.60
2019-06-26T15:18:00.799Z,6.33
2019-06-26T15:20:35.429Z,6.55
2019-06-26T15:23:10.026Z,7.12
2019-06-26T15:25:44.614Z,6.45
2019-06-26T15:28:19.177Z,6.50
2019-06-26T15:30:55.111Z,6.08
2019-06-26T15:33:29.728Z,6.47
2019-06-26T15:36:04.347Z,6.55
2019-06-26T15:38:39.139Z,6.47
2019-06-26T15:41:13.710Z,6.10
2019-06-26T15:43:48.354Z,6.55
2019-06-26T15:46:22.961Z,6.78
2019-06-26T15:48:57.949Z,6.33
2019-06-26T15:51:33.192Z,6.47
2019-06-26T15:54:07.852Z,6.50
2019-06-26T15:56:42.860Z,7.00
2019-06-26T15:59:17.548Z,6.20
2019-06-26T16:01:52.294Z,6.10
2019-06-26T16:04:26.946Z,6.50
2019-06-26T16:07:02.335Z,6.50
2019-06-26T16:09:37.002Z,6.42
2019-06-26T16:12:11.656Z,6.60
2019-06-26T16:14:46.289Z,6.78
2019-06-26T16:17:32.061Z,6.85
2019-06-26T16:20:07.244Z,6.72
2019-06-26T16:22:41.824Z,6.37
2019-06-26T16:25:16.607Z,6.95
2019-06-26T16:28:04.322Z,8.48
2019-06-26T16:30:27.454Z,6.70
2019-06-26T16:33:02.482Z,6.60
2019-06-26T16:35:37.097Z,6.70
2019-06-26T16:38:12.039Z,6.70
2019-06-26T16:40:46.656Z,6.75
2019-06-26T16:43:21.300Z,6.72
2019-06-26T16:45:56.444Z,6.60
2019-06-26T16:48:31.061Z,6.22
2019-06-26T16:51:05.822Z,6.50
2019-06-26T16:53:40.463Z,6.20
2019-06-26T16:56:15.157Z,5.53
2019-06-26T16:58:49.717Z,6.40
2019-06-26T17:01:24.300Z,7.65
2019-06-26T17:03:58.841Z,6.17
2019-06-26T17:06:33.461Z,5.25
2019-06-26T17:09:09.425Z,7.60
2019-06-26T17:11:44.074Z,5.37
2019-06-26T17:14:18.699Z,6.47
2019-06-26T17:16:53.378Z,7.10
2019-06-26T17:19:27.972Z,5.67
2019-06-26T17:22:02.556Z,6.10
2019-06-26T17:24:37.519Z,5.70
2019-06-26T17:27:12.502Z,5.62
2019-06-26T17:29:47.514Z,5.37
2019-06-26T17:32:22.901Z,5.97
2019-06-26T17:34:57.731Z,5.42
2019-06-26T17:37:32.428Z,6.08
2019-06-26T17:40:08.048Z,5.87
2019-06-26T17:42:43.060Z,5.60
2019-06-26T17:45:18.248Z,5.95
2019-06-26T17:47:53.294Z,5.97
2019-06-26T17:50:28.168Z,5.83
2019-06-26T17:53:03.116Z,6.33
2019-06-26T17:55:38.077Z,6.20
2019-06-26T17:58:13.033Z,6.53
2019-06-26T18:00:47.759Z,7.47
2019-06-26T18:03:23.022Z,6.35
2019-06-26T18:05:58.420Z,6.90
2019-06-26T18:08:33.824Z,5.97
2019-06-26T18:11:09.061Z,6.22
2019-06-26T18:13:44.453Z,6.05
2019-06-26T18:16:19.622Z,5.83
2019-06-26T18:18:55.124Z,6.03
2019-06-26T18:21:30.397Z,6.55
2019-06-26T18:24:05.554Z,7.85
2019-06-26T18:26:40.710Z,7.08
2019-06-26T18:29:16.061Z,7.08
2019-06-26T18:31:51.306Z,6.47
2019-06-26T18:34:26.580Z,6.85
2019-06-26T18:37:02.046Z,6.15
2019-06-26T18:39:37.289Z,5.92
2019-06-26T18:42:12.490Z,7.17
2019-06-26T18:44:47.813Z,6.65
2019-06-26T18:47:23.265Z,14.63
2019-06-26T18:49:58.696Z,9.23
2019-06-26T18:52:33.969Z,8.20
2019-06-26T18:55:10.257Z,7.12
2019-06-26T18:57:48.313Z,6.87
2019-06-26T19:00:23.546Z,7.08
2019-06-26T19:02:58.899Z,6.60
2019-06-26T19:05:34.073Z,6.37
2019-06-26T19:08:09.220Z,6.40
2019-06-26T19:10:44.493Z,6.00
2019-06-26T19:13:20.591Z,7.90
2019-06-26T19:15:56.005Z,7.60
2019-06-26T19:18:31.278Z,6.60
2019-06-26T19:21:06.489Z,6.58
2019-06-26T19:23:41.661Z,7.33
2019-06-26T19:26:16.933Z,8.23
2019-06-26T19:28:52.068Z,8.35
2019-06-26T19:31:27.785Z,9.80
2019-06-26T19:34:03.145Z,10.08
2019-06-26T19:36:49.482Z,10.20
2019-06-26T19:39:15.725Z,10.65
2019-06-26T19:41:51.336Z,9.88
2019-06-26T19:44:26.572Z,9.85
2019-06-26T19:47:01.973Z,7.58
2019-06-26T19:49:37.313Z,7.08
2019-06-26T19:52:12.624Z,7.08
2019-06-26T19:54:47.913Z,8.85
2019-06-26T19:57:23.176Z,7.53
2019-06-26T19:59:58.459Z,6.83
2019-06-26T20:02:34.075Z,7.05
2019-06-26T20:05:09.540Z,6.47
2019-06-26T20:07:45.351Z,6.72
2019-06-26T20:10:20.617Z,6.53
2019-06-26T20:12:55.912Z,6.28
2019-06-26T20:15:31.412Z,6.42
2019-06-26T20:18:06.676Z,6.75
2019-06-26T20:20:41.942Z,6.97
2019-06-26T20:23:17.179Z,7.47
2019-06-26T20:25:52.447Z,7.37
2019-06-26T20:28:27.680Z,7.72
2019-06-26T20:31:02.921Z,7.12
2019-06-26T20:33:38.385Z,7.53
2019-06-26T20:36:13.674Z,7.42
2019-06-26T20:38:48.837Z,8.03
2019-06-26T20:41:24.016Z,7.50
2019-06-26T20:43:59.253Z,8.10
2019-06-26T20:46:34.535Z,7.17
2019-06-26T20:49:10.084Z,8.18
2019-06-26T20:51:45.292Z,7.58
2019-06-26T20:54:20.535Z,7.25
2019-06-26T20:56:56.194Z,7.92
2019-06-26T20:59:31.386Z,7.50
2019-06-26T21:02:06.721Z,7.17
2019-06-26T21:04:41.985Z,6.83
2019-06-26T21:07:17.138Z,6.87
2019-06-26T21:09:52.297Z,7.87
2019-06-26T21:12:27.532Z,7.60
2019-06-26T21:15:03.171Z,7.92
2019-06-26T21:17:38.514Z,7.90
2019-06-26T21:20:13.747Z,8.08
2019-06-26T21:22:48.914Z,7.55
2019-06-26T21:25:24.541Z,7.33
2019-06-26T21:27:59.745Z,7.75
2019-06-26T21:30:35.305Z,7.90
2019-06-26T21:33:10.730Z,7.37
2019-06-26T21:35:46.585Z,7.85
2019-06-26T21:38:22.122Z,7.67
2019-06-26T21:40:57.664Z,6.90
2019-06-26T21:43:32.885Z,7.62
2019-06-26T21:46:08.066Z,6.97
2019-06-26T21:48:43.289Z,7.78
2019-06-26T21:51:18.859Z,7.78
2019-06-26T21:53:54.096Z,9.43
2019-06-26T21:56:29.706Z,9.95
2019-06-26T21:59:04.988Z,9.75
2019-06-26T22:01:40.375Z,9.68
2019-06-26T22:04:15.655Z,8.90
2019-06-26T22:06:50.922Z,8.78
2019-06-26T22:09:26.053Z,10.23
2019-06-26T22:12:01.218Z,9.93
2019-06-26T22:14:36.445Z,9.68
2019-06-26T22:17:11.665Z,9.63
2019-06-26T22:19:46.869Z,13.53
2019-06-26T22:22:22.103Z,8.88
2019-06-26T22:24:57.360Z,9.03
2019-06-26T22:27:32.926Z,8.48
2019-06-26T22:30:09.117Z,9.28
2019-06-26T22:32:44.281Z,10.35
2019-06-26T22:35:19.444Z,11.22
2019-06-26T22:37:54.829Z,11.38
2019-06-26T22:40:30.100Z,10.05
2019-06-26T22:43:05.416Z,9.40
2019-06-26T22:45:40.928Z,9.53
2019-06-26T22:48:16.078Z,9.05
2019-06-26T22:50:51.311Z,9.65
2019-06-26T22:53:26.574Z,8.98
2019-06-26T22:56:07.657Z,8.40
2019-06-26T22:58:39.219Z,9.00
2019-06-26T23:01:14.428Z,9.40
2019-06-26T23:03:50.189Z,8.93
2019-06-26T23:06:25.461Z,9.40
2019-06-26T23:09:00.736Z,9.40
2019-06-26T23:11:36.005Z,8.68
2019-06-26T23:14:11.278Z,9.35
2019-06-26T23:16:46.431Z,8.58
2019-06-26T23:19:21.679Z,8.40
2019-06-26T23:21:56.914Z,8.58
2019-06-26T23:24:32.166Z,8.48
2019-06-26T23:27:07.456Z,8.55
2019-06-26T23:29:42.992Z,8.63
2019-06-26T23:32:18.218Z,8.55
2019-06-26T23:34:53.540Z,7.78
2019-06-26T23:37:28.875Z,7.75
2019-06-26T23:40:04.203Z,8.20
2019-06-26T23:42:39.702Z,8.88
2019-06-26T23:45:15.066Z,8.58
2019-06-26T23:47:50.278Z,8.68
2019-06-26T23:50:25.525Z,9.03
2019-06-26T23:53:00.759Z,8.65
2019-06-26T23:55:36.145Z,8.05
2019-06-26T23:58:11.732Z,7.90
